Time;durP1;ratioP1;P1;durP2;ratioP2;P2;SDS_P1;SDS_P2;PMS_P1;PMS_P2;Temp;Humidity;BMP_temperature;BMP_pressure;BME280_temperature;BME280_humidity;BME280_pressure;Samples;Min_cycle;Max_cycle;Signal;HPM_P1;HPM_P2
2024/02/01 00:01:29;;;;;;;;;;;;;;;27.32;37.62;95534.16;4915303;29;7438;-56
2024/02/01 00:03:57;;;;;;;;;;;;;;;27.35;37.64;95542.25;4933409;29;9474;-56
2024/02/01 00:06:51;;;;;;;;;;;;;;;27.34;37.50;95526.88;4931068;29;8761;-56
2024/02/01 00:09:28;;;;;;;;;;;;;;;27.30;37.34;95542.94;4934198;29;7344;-56
2024/02/01 00:11:53;;;;;;;;;;;;;;;27.31;37.48;95525.13;4911193;29;7156;-37
2024/02/01 00:14:19;;;;;;;;;;;;;;;27.29;37.93;95526.88;4930004;29;8750;-37
2024/02/01 00:16:45;;;;;;;;;;;;;;;27.28;37.29;95528.09;4914408;29;7393;-37
2024/02/01 00:19:40;;;;;;;;;;;;;;;27.28;37.67;95520.56;4952238;28;7099;-37
2024/02/01 00:22:22;;;;;;;;;;;;;;;27.26;37.83;95500.97;4945130;29;7248;-38
2024/02/01 00:24:59;;;;;;;;;;;;;;;27.25;37.34;95499.47;4923627;29;7347;-38
2024/02/01 00:27:28;;;;;;;;;;;;;;;27.26;37.65;95495.47;4937579;29;6975;-37
2024/02/01 00:29:54;;;;;;;;;;;;;;;27.22;37.57;95491.41;4959067;28;9422;-37
2024/02/01 00:32:19;;;;;;;;;;;;;;;27.23;37.77;95481.91;4999411;28;7246;-37
2024/02/01 00:34:45;;;;;;;;;;;;;;;27.21;37.06;95470.59;4973994;28;7193;-37
2024/02/01 00:37:20;;;;;;;;;;;;;;;27.24;37.31;95466.81;4977604;28;7234;-37
2024/02/01 00:39:51;;;;;;;;;;;;;;;27.22;37.20;95469.31;4983680;28;7264;-37
2024/02/01 00:42:55;;;;;;;;;;;;;;;27.21;37.44;95479.59;4992801;28;8737;-37
2024/02/01 00:45:22;;;;;;;;;;;;;;;27.18;37.31;95480.63;4978500;28;8926;-38
2024/02/01 00:47:51;;;;;;;;;;;;;;;27.16;37.24;95480.34;4981878;28;7629;-37
2024/02/01 00:50:27;;;;;;;;;;;;;;;27.18;37.41;95486.13;4973633;28;7067;-37
2024/02/01 00:53:04;;;;;;;;;;;;;;;27.18;37.23;95482.63;4982970;28;7270;-39
2024/02/01 00:55:44;;;;;;;;;;;;;;;27.16;37.39;95482.34;4992684;28;7233;-37
2024/02/01 00:58:12;;;;;;;;;;;;;;;27.17;37.09;95495.66;5000866;28;8709;-37
2024/02/01 01:00:42;;;;;;;;;;;;;;;27.16;37.27;95496.16;5078670;28;7111;-37
2024/02/01 01:03:19;;;;;;;;;;;;;;;27.17;37.13;95495.66;5075141;28;7325;-37
2024/02/01 01:05:51;;;;;;;;;;;;;;;27.15;37.46;95497.41;5042182;28;9310;-37
2024/02/01 01:08:19;;;;;;;;;;;;;;;27.17;37.09;95500.44;5035316;28;7252;-38
2024/02/01 01:10:52;;;;;;;;;;;;;;;27.15;37.53;95498.16;5051353;28;7248;-37
2024/02/01 01:13:27;;;;;;;;;;;;;;;27.13;37.27;95495.16;5055920;28;7745;-37
2024/02/01 01:15:53;;;;;;;;;;;;;;;27.15;36.90;95494.63;5061180;28;8968;-37
2024/02/01 01:18:29;;;;;;;;;;;;;;;27.16;37.49;95485.88;5055938;28;7005;-37
2024/02/01 01:20:57;;;;;;;;;;;;;;;27.15;36.84;95487.13;5050542;28;7276;-41
2024/02/01 01:23:30;;;;;;;;;;;;;;;27.13;37.12;95486.09;5066178;28;7084;-41
2024/02/01 01:26:25;;;;;;;;;;;;;;;27.12;37.21;95493.63;5057350;28;7238;-41
2024/02/01 01:28:51;;;;;;;;;;;;;;;27.12;37.63;95503.94;5041039;28;7283;-42
2024/02/01 01:31:17;;;;;;;;;;;;;;;27.08;37.13;95495.88;5054710;28;7260;-41
2024/02/01 01:33:45;;;;;;;;;;;;;;;27.06;37.00;95501.13;5045420;28;9146;-41
2024/02/01 01:36:19;;;;;;;;;;;;;;;27.03;37.26;95495.84;5040679;28;7052;-40
2024/02/01 01:38:58;;;;;;;;;;;;;;;27.03;36.96;95498.59;5039104;28;7247;-40
2024/02/01 01:41:34;;;;;;;;;;;;;;;27.02;37.42;95494.31;5063723;28;7946;-40
2024/02/01 01:44:06;;;;;;;;;;;;;;;26.99;37.36;95493.31;5072781;28;7256;-41
2024/02/01 01:46:38;;;;;;;;;;;;;;;27.01;37.86;95482.53;5055271;28;7400;-42
2024/02/01 01:49:07;;;;;;;;;;;;;;;27.00;37.23;95491.31;5045292;28;7051;-40
2024/02/01 01:51:45;;;;;;;;;;;;;;;26.95;37.08;95489.28;5065514;28;7007;-42
2024/02/01 01:54:22;;;;;;;;;;;;;;;26.97;36.96;95509.59;5055374;28;7252;-41
2024/02/01 01:56:51;;;;;;;;;;;;;;;26.97;37.05;95504.09;5064796;28;7419;-42
2024/02/01 01:59:27;;;;;;;;;;;;;;;26.95;37.32;95497.56;5047196;28;9058;-40
2024/02/01 02:02:05;;;;;;;;;;;;;;;26.97;37.08;95498.56;5048889;28;8830;-42
2024/02/01 02:04:36;;;;;;;;;;;;;;;26.96;37.37;95512.88;5051652;28;7049;-40
2024/02/01 02:07:02;;;;;;;;;;;;;;;26.96;37.36;95518.38;5049909;28;7241;-40
2024/02/01 02:09:43;;;;;;;;;;;;;;;26.95;36.98;95519.66;5063470;28;8926;-41
2024/02/01 02:12:16;;;;;;;;;;;;;;;26.94;36.89;95521.66;5044118;28;8327;-40
2024/02/01 02:15:01;;;;;;;;;;;;;;;26.93;37.17;95531.16;5057735;28;9053;-41
2024/02/01 02:18:09;;;;;;;;;;;;;;;26.93;37.04;95528.41;5060526;28;7058;-40
2024/02/01 02:20:53;;;;;;;;;;;;;;;26.90;37.10;95526.66;5051448;28;7257;-40
2024/02/01 02:23:21;;;;;;;;;;;;;;;26.91;36.90;95522.63;5049545;28;8192;-41
2024/02/01 02:25:48;;;;;;;;;;;;;;;26.90;37.03;95521.88;5057248;28;7063;-42
2024/02/01 02:28:14;;;;;;;;;;;;;;;26.88;37.28;95518.09;5036185;28;8400;-43
2024/02/01 02:30:40;;;;;;;;;;;;;;;26.90;37.02;95521.88;5046690;28;7210;-41
2024/02/01 02:33:06;;;;;;;;;;;;;;;26.89;37.00;95519.59;5047774;28;8787;-40
2024/02/01 02:35:31;;;;;;;;;;;;;;;26.91;37.39;95522.63;5043857;28;7096;-40
2024/02/01 02:38:06;;;;;;;;;;;;;;;26.88;37.05;95520.88;5059099;28;9051;-40
2024/02/01 02:40:33;;;;;;;;;;;;;;;26.89;37.01;95531.41;5056680;28;7226;-41
2024/02/01 02:43:05;;;;;;;;;;;;;;;26.86;37.05;95529.63;5053174;28;7092;-40
2024/02/01 02:45:37;;;;;;;;;;;;;;;26.90;37.13;95523.88;5054370;28;10118;-41
2024/02/01 02:48:06;;;;;;;;;;;;;;;26.91;36.98;95528.16;5072445;28;7317;-41
2024/02/01 02:50:38;;;;;;;;;;;;;;;26.92;37.41;95523.38;5057481;28;7147;-41
2024/02/01 02:53:04;;;;;;;;;;;;;;;26.90;36.90;95521.13;5053752;28;7994;-40
2024/02/01 02:55:30;;;;;;;;;;;;;;;26.89;37.10;95514.09;5040111;28;7391;-41
2024/02/01 02:57:57;;;;;;;;;;;;;;;26.87;36.94;95514.59;5050764;28;8815;-40
2024/02/01 03:00:24;;;;;;;;;;;;;;;26.86;37.28;95506.81;5076736;28;8540;-41
2024/02/01 03:02:50;;;;;;;;;;;;;;;26.88;37.01;95509.81;5067651;28;7318;-40
2024/02/01 03:05:17;;;;;;;;;;;;;;;26.83;36.75;95508.53;5063034;28;9073;-41
2024/02/01 03:07:46;;;;;;;;;;;;;;;26.87;37.10;95516.59;5042638;28;9203;-40
2024/02/01 03:10:20;;;;;;;;;;;;;;;26.89;36.64;95511.31;5055645;28;7274;-41
2024/02/01 03:12:57;;;;;;;;;;;;;;;26.88;36.97;95512.59;5055921;28;9124;-42
2024/02/01 03:15:29;;;;;;;;;;;;;;;26.88;36.95;95507.78;5031644;28;8021;-40
2024/02/01 03:17:56;;;;;;;;;;;;;;;26.88;36.99;95509.81;5049228;28;9057;-40
2024/02/01 03:20:28;;;;;;;;;;;;;;;26.87;36.91;95514.59;5056164;28;7255;-40
2024/02/01 03:23:05;;;;;;;;;;;;;;;26.87;37.00;95511.06;5048962;28;7224;-40
2024/02/01 03:25:39;;;;;;;;;;;;;;;26.86;37.09;95512.31;5057989;28;6960;-40
2024/02/01 03:28:05;;;;;;;;;;;;;;;26.83;37.44;95513.28;5054168;28;6980;-42
2024/02/01 03:30:32;;;;;;;;;;;;;;;26.87;36.43;95516.59;5051300;28;7059;-42
2024/02/01 03:33:02;;;;;;;;;;;;;;;26.86;36.88;95520.59;5069514;28;7163;-43
2024/02/01 03:35:32;;;;;;;;;;;;;;;26.84;36.83;95512.03;5043496;28;7290;-40
2024/02/01 03:38:02;;;;;;;;;;;;;;;26.84;36.83;95526.59;5057480;28;9154;-40
2024/02/01 03:40:29;;;;;;;;;;;;;;;26.84;36.85;95528.59;5049608;28;6985;-38
2024/02/01 03:42:59;;;;;;;;;;;;;;;26.83;36.89;95527.09;5037920;28;9116;-38
2024/02/01 03:45:29;;;;;;;;;;;;;;;26.80;36.81;95530.84;5046031;28;7476;-38
2024/02/01 03:47:56;;;;;;;;;;;;;;;26.83;36.91;95532.63;5042299;28;6997;-38
2024/02/01 03:50:28;;;;;;;;;;;;;;;26.86;36.81;95534.41;5036822;28;9239;-38
2024/02/01 03:53:19;;;;;;;;;;;;;;;26.85;36.96;95532.88;5064100;28;7261;-38
2024/02/01 03:55:51;;;;;;;;;;;;;;;26.82;37.05;95537.38;5056715;28;8787;-38
2024/02/01 03:58:22;;;;;;;;;;;;;;;26.82;36.87;95536.63;5073040;28;7215;-38
2024/02/01 04:00:50;;;;;;;;;;;;;;;26.81;37.18;95535.13;5064997;28;7173;-38
2024/02/01 04:03:27;;;;;;;;;;;;;;;26.83;36.43;95521.56;5046392;28;7367;-38
2024/02/01 04:06:00;;;;;;;;;;;;;;;26.80;37.00;95508.75;5047457;28;7207;-38
2024/02/01 04:08:29;;;;;;;;;;;;;;;26.83;36.93;95514.06;5039037;28;6983;-38
2024/02/01 04:11:04;;;;;;;;;;;;;;;26.83;36.80;95507.78;5055565;28;7041;-38
2024/02/01 04:13:31;;;;;;;;;;;;;;;26.80;36.31;95504.00;5060369;28;8479;-38
2024/02/01 04:15:59;;;;;;;;;;;;;;;26.80;36.65;95514.28;5049620;28;7242;-38
2024/02/01 04:18:36;;;;;;;;;;;;;;;26.81;36.81;95526.84;5069206;28;8769;-38
2024/02/01 04:21:03;;;;;;;;;;;;;;;26.82;36.71;95531.09;5072068;28;7248;-38
2024/02/01 04:23:31;;;;;;;;;;;;;;;26.79;36.45;95524.56;5068523;28;6913;-38
2024/02/01 04:26:00;;;;;;;;;;;;;;;26.80;36.94;95533.59;5045892;28;7959;-38
2024/02/01 04:28:26;;;;;;;;;;;;;;;26.79;37.15;95538.38;5042908;28;7323;-38
2024/02/01 04:30:53;;;;;;;;;;;;;;;26.78;36.89;95525.81;5055743;28;7605;-38
2024/02/01 04:33:20;;;;;;;;;;;;;;;26.77;36.70;95518.03;5088294;28;7161;-38
2024/02/01 04:35:50;;;;;;;;;;;;;;;26.78;36.71;95523.06;5034565;28;7157;-38
2024/02/01 04:38:20;;;;;;;;;;;;;;;26.77;36.61;95520.78;5051807;28;9158;-38
2024/02/01 04:40:49;;;;;;;;;;;;;;;26.79;36.88;95523.81;5048881;28;9049;-38
2024/02/01 04:43:21;;;;;;;;;;;;;;;26.80;36.75;95519.78;5053650;28;7009;-38
2024/02/01 04:45:47;;;;;;;;;;;;;;;26.79;36.85;95512.78;5069263;28;8477;-38
2024/02/01 04:48:15;;;;;;;;;;;;;;;26.80;36.54;95519.78;5059661;28;7228;-38
2024/02/01 04:50:41;;;;;;;;;;;;;;;26.80;36.84;95517.03;5070547;28;7527;-55
2024/02/01 04:53:07;;;;;;;;;;;;;;;26.79;36.83;95523.81;5052594;28;10204;-55
2024/02/01 04:55:33;;;;;;;;;;;;;;;26.78;37.05;95527.81;5058638;28;7185;-55
2024/02/01 04:58:02;;;;;;;;;;;;;;;26.78;36.58;95530.56;5053295;28;7537;-55
2024/02/01 05:00:33;;;;;;;;;;;;;;;26.79;36.31;95530.09;5053760;28;7070;-55
2024/02/01 05:03:05;;;;;;;;;;;;;;;26.75;36.79;95517.78;5057199;28;7998;-56
2024/02/01 05:05:31;;;;;;;;;;;;;;;26.77;36.65;95521.53;5077314;28;7241;-56
2024/02/01 05:07:59;;;;;;;;;;;;;;;26.76;36.44;95517.28;5059508;28;7247;-56
2024/02/01 05:10:25;;;;;;;;;;;;;;;26.77;36.67;95509.75;5056628;28;6991;-55
2024/02/01 05:12:54;;;;;;;;;;;;;;;26.77;36.79;95507.00;5055229;28;9031;-56
2024/02/01 05:15:20;;;;;;;;;;;;;;;26.77;36.59;95495.94;5055129;28;7304;-56
2024/02/01 05:17:45;;;;;;;;;;;;;;;26.76;36.49;95499.94;5069510;28;7838;-55
2024/02/01 05:20:16;;;;;;;;;;;;;;;26.76;36.90;95502.72;5053322;28;8750;-55
2024/02/01 05:22:45;;;;;;;;;;;;;;;26.74;36.95;95502.44;5045445;28;9185;-55
2024/02/01 05:25:23;;;;;;;;;;;;;;;26.75;36.63;95495.69;5065364;28;9309;-55
2024/02/01 05:27:52;;;;;;;;;;;;;;;26.76;36.46;95494.44;5061769;28;7316;-55
2024/02/01 05:30:22;;;;;;;;;;;;;;;26.75;37.04;95498.44;5053580;28;7270;-55
2024/02/01 05:32:52;;;;;;;;;;;;;;;26.74;36.78;95486.66;5062764;28;7090;-56
2024/02/01 05:35:30;;;;;;;;;;;;;;;26.74;36.77;95483.88;5067135;28;7200;-56
2024/02/01 05:38:01;;;;;;;;;;;;;;;26.72;36.88;95480.84;5039269;28;8771;-56
2024/02/01 05:40:29;;;;;;;;;;;;;;;26.75;36.68;95490.16;5041701;28;7265;-56
2024/02/01 05:42:58;;;;;;;;;;;;;;;26.75;36.82;95490.91;5046156;28;8768;-56
2024/02/01 05:45:44;;;;;;;;;;;;;;;26.75;36.75;95492.94;5066181;28;9063;-56
2024/02/01 05:48:12;;;;;;;;;;;;;;;26.72;36.80;95477.31;5045866;28;9093;-55
2024/02/01 05:50:38;;;;;;;;;;;;;;;26.75;36.87;95481.88;5049324;28;8782;-56
2024/02/01 05:53:05;;;;;;;;;;;;;;;26.72;36.82;95467.03;5046206;28;7086;-56
2024/02/01 05:55:31;;;;;;;;;;;;;;;26.75;36.88;95460.53;5051993;28;6994;-55
2024/02/01 05:58:06;;;;;;;;;;;;;;;26.81;36.93;95435.75;5053688;28;6984;-55
2024/02/01 06:00:32;;;;;;;;;;;;;;;26.75;36.94;95438.47;5056736;28;6994;-41
2024/02/01 06:03:25;;;;;;;;;;;;;;;26.73;37.14;95446.47;5056940;28;9470;-55
2024/02/01 06:05:53;;;;;;;;;;;;;;;26.73;38.14;95440.22;4956875;28;9148;-55
2024/02/01 06:08:19;;;;;;;;;;;;;;;26.73;37.77;95431.94;4966123;28;8734;-55
2024/02/01 06:10:51;;;;;;;;;;;;;;;26.75;37.87;95426.69;4951155;28;7038;-55
2024/02/01 06:13:49;;;;;;;;;;;;;;;26.75;37.76;95443.25;4952136;28;9378;-55
2024/02/01 06:16:16;;;;;;;;;;;;;;;26.74;37.63;95441.72;4879906;29;6989;-55
2024/02/01 06:18:44;;;;;;;;;;;;;;;26.74;37.36;95436.19;4877553;29;7325;-54
2024/02/01 06:21:19;;;;;;;;;;;;;;;26.75;36.98;95437.72;4879114;29;9095;-53
2024/02/01 06:23:46;;;;;;;;;;;;;;;26.77;36.88;95429.72;4894012;29;7130;-53
2024/02/01 06:26:25;;;;;;;;;;;;;;;26.76;37.06;95425.41;4886451;29;8726;-53
2024/02/01 06:28:56;;;;;;;;;;;;;;;26.73;37.00;95418.16;4888112;29;7223;-53
2024/02/01 06:31:26;;;;;;;;;;;;;;;26.73;37.57;95420.91;4886624;29;7137;-54
2024/02/01 06:33:54;;;;;;;;;;;;;;;26.73;37.35;95410.59;4887875;29;6992;-51
2024/02/01 06:36:23;;;;;;;;;;;;;;;26.72;37.12;95413.84;4893887;29;8788;-53
2024/02/01 06:44:26;;;;;;;;;;;;;;;26.69;36.71;95414.81;4991124;28;7364;-54
2024/02/01 06:52:24;;;;;;;;;;;;;;;26.72;36.64;95447.72;5047612;28;7254;-51
2024/02/01 06:58:03;;;;;;;;;;;;;;;26.76;37.07;95472.34;5070590;28;7277;-55
2024/02/01 07:03:13;;;;;;;;;;;;;;;26.73;37.04;95467.81;5081044;28;8769;-57
2024/02/01 07:06:27;;;;;;;;;;;;;;;26.74;36.94;95474.84;5083943;28;7000;-56
2024/02/01 07:09:29;;;;;;;;;;;;;;;26.71;37.27;95471.03;4973584;28;7422;-56
2024/02/01 07:17:59;;;;;;;;;;;;;;;26.69;36.91;95425.84;4959618;28;7106;-38
2024/02/01 07:20:35;;;;;;;;;;;;;;;26.69;36.77;95423.84;4964672;28;9051;-38
2024/02/01 07:26:02;;;;;;;;;;;;;;;26.67;36.92;95437.38;4959963;28;8762;-38
2024/02/01 07:59:57;;;;;;;;;;;;;;;26.64;36.50;95465.22;5074626;28;8714;-38
2024/02/01 08:08:33;;;;;;;;;;;;;;;26.66;36.77;95499.38;5083049;28;7265;-38
2024/02/01 08:11:03;;;;;;;;;;;;;;;26.63;36.80;95497.56;5059516;28;7082;-38
2024/02/01 08:13:56;;;;;;;;;;;;;;;26.68;36.71;95501.63;5066774;28;7284;-38
2024/02/01 08:17:04;;;;;;;;;;;;;;;26.68;36.86;95499.63;4994691;28;7011;-38
2024/02/01 08:19:43;;;;;;;;;;;;;;;26.68;36.66;95504.38;4927310;29;7212;-38
2024/02/01 08:22:14;;;;;;;;;;;;;;;26.65;37.28;95499.84;4908771;29;7038;-38
2024/02/01 08:24:54;;;;;;;;;;;;;;;26.66;37.00;95506.88;4917863;29;6999;-37
2024/02/01 08:27:36;;;;;;;;;;;;;;;26.66;37.05;95512.41;4935902;29;7241;-37
2024/02/01 08:30:14;;;;;;;;;;;;;;;26.65;36.61;95516.41;4938064;28;9149;-38
2024/02/01 08:32:41;;;;;;;;;;;;;;;26.68;36.89;95526.47;4936601;28;7078;-56
2024/02/01 08:35:12;;;;;;;;;;;;;;;26.69;37.11;95539.75;4938931;28;9070;-57
2024/02/01 08:37:41;;;;;;;;;;;;;;;26.67;37.08;95547.03;4928866;29;9203;-57
2024/02/01 08:40:22;;;;;;;;;;;;;;;26.68;37.18;95545.78;4907841;29;7186;-57
2024/02/01 08:43:00;;;;;;;;;;;;;;;26.69;37.06;95545.28;4924411;29;7003;-54
2024/02/01 08:45:30;;;;;;;;;;;;;;;26.72;37.10;95544.31;4933581;29;8782;-54
2024/02/01 08:48:02;;;;;;;;;;;;;;;26.72;37.01;95541.56;4921030;29;6984;-47
2024/02/01 08:50:30;;;;;;;;;;;;;;;26.72;37.18;95543.56;4912131;29;9147;-54
2024/02/01 08:52:56;;;;;;;;;;;;;;;26.72;36.88;95546.31;4958567;28;7251;-54
2024/02/01 08:55:34;;;;;;;;;;;;;;;26.71;37.00;95556.59;5054046;28;6994;-54
2024/02/01 08:58:08;;;;;;;;;;;;;;;26.71;37.19;95555.81;5046184;28;7257;-54
2024/02/01 09:00:44;;;;;;;;;;;;;;;26.69;37.02;95561.09;5064757;28;9127;-53
2024/02/01 09:03:16;;;;;;;;;;;;;;;26.71;36.92;95559.34;5052433;28;9397;-55
2024/02/01 09:05:50;;;;;;;;;;;;;;;26.72;37.46;95554.59;5044631;28;7241;-55
2024/02/01 09:08:36;;;;;;;;;;;;;;;26.73;37.28;95561.66;5080973;28;9641;-55
2024/02/01 09:11:14;;;;;;;;;;;;;;;26.70;37.27;95562.59;5073003;28;7546;-55
2024/02/01 09:13:47;;;;;;;;;;;;;;;26.71;37.13;95575.16;5049689;28;7249;-55
2024/02/01 09:16:21;;;;;;;;;;;;;;;26.69;37.41;95572.88;5055389;28;8718;-56
2024/02/01 09:18:50;;;;;;;;;;;;;;;26.71;37.16;95580.66;5052969;28;7455;-55
2024/02/01 09:21:18;;;;;;;;;;;;;;;26.70;37.53;95579.94;5057031;28;7214;-55
2024/02/01 09:24:05;;;;;;;;;;;;;;;26.70;37.63;95579.16;5061800;28;7953;-54
2024/02/01 09:26:41;;;;;;;;;;;;;;;26.72;37.25;95582.19;5052843;28;7945;-55
2024/02/01 09:29:11;;;;;;;;;;;;;;;26.69;37.22;95577.63;5054952;28;7243;-55
2024/02/01 09:31:37;;;;;;;;;;;;;;;26.70;37.06;95590.22;5043866;28;7187;-54
2024/02/01 09:34:05;;;;;;;;;;;;;;;26.71;36.77;95586.19;5059116;28;9143;-55
2024/02/01 09:36:33;;;;;;;;;;;;;;;26.72;37.71;95588.47;5058192;28;8533;-55
2024/02/01 09:39:11;;;;;;;;;;;;;;;26.74;37.56;95588.00;5074678;28;7014;-55
2024/02/01 09:41:37;;;;;;;;;;;;;;;26.73;37.16;95601.03;5046467;28;7560;-54
2024/02/01 09:44:14;;;;;;;;;;;;;;;26.75;37.25;95597.81;5069905;28;7274;-55
2024/02/01 09:46:42;;;;;;;;;;;;;;;26.70;37.45;95587.44;5077472;28;7013;-54
2024/02/01 09:49:11;;;;;;;;;;;;;;;26.72;37.36;95593.22;5064520;28;7324;-52
2024/02/01 09:51:52;;;;;;;;;;;;;;;26.68;37.26;95592.69;5066685;28;9182;-41
2024/02/01 09:54:33;;;;;;;;;;;;;;;26.69;37.44;95596.97;5079539;28;7004;-41
2024/02/01 09:57:14;;;;;;;;;;;;;;;26.68;37.08;95587.19;5060257;28;8966;-39
2024/02/01 09:59:51;;;;;;;;;;;;;;;26.72;37.35;95582.19;5076235;28;7189;-40
2024/02/01 10:02:23;;;;;;;;;;;;;;;26.74;36.79;95588.00;5063927;28;7555;-39
2024/02/01 10:05:02;;;;;;;;;;;;;;;26.72;37.23;95580.19;5057496;28;7189;-40
2024/02/01 10:07:38;;;;;;;;;;;;;;;26.72;37.19;95579.44;5055389;28;7171;-44
2024/02/01 10:10:13;;;;;;;;;;;;;;;26.72;37.04;95577.44;5064485;28;7431;-43
2024/02/01 10:12:58;;;;;;;;;;;;;;;26.71;36.93;95586.94;5076346;28;8717;-44
2024/02/01 10:15:30;;;;;;;;;;;;;;;26.72;37.23;95577.44;5048908;28;7115;-39
2024/02/01 10:18:14;;;;;;;;;;;;;;;26.72;36.93;95571.91;5082005;28;9207;-41
2024/02/01 10:20:50;;;;;;;;;;;;;;;26.70;37.02;95568.13;5059912;28;7077;-39
2024/02/01 10:23:19;;;;;;;;;;;;;;;26.69;37.27;95558.31;5057525;28;7178;-40
2024/02/01 10:26:03;;;;;;;;;;;;;;;26.72;37.09;95568.38;5077246;28;9140;-39
2024/02/01 10:28:36;;;;;;;;;;;;;;;26.72;37.11;95557.34;5048453;28;7018;-39
2024/02/01 10:31:10;;;;;;;;;;;;;;;26.72;37.13;95565.63;5059481;28;7278;-39
2024/02/01 10:33:38;;;;;;;;;;;;;;;26.70;37.20;95563.38;5083389;28;8156;-40
2024/02/01 10:36:10;;;;;;;;;;;;;;;26.67;37.06;95552.53;5058303;28;6985;-43
2024/02/01 10:38:45;;;;;;;;;;;;;;;26.69;37.18;95558.31;5061345;28;7278;-40
2024/02/01 10:41:26;;;;;;;;;;;;;;;26.69;37.32;95552.81;5084528;28;7327;-39
2024/02/01 10:44:15;;;;;;;;;;;;;;;26.66;37.15;95543.53;5056560;28;7522;-41
2024/02/01 10:46:55;;;;;;;;;;;;;;;26.67;37.43;95550.53;5059171;28;7315;-40
2024/02/01 10:49:40;;;;;;;;;;;;;;;26.66;37.27;95549.03;5059746;28;7287;-40
2024/02/01 10:52:11;;;;;;;;;;;;;;;26.67;37.23;95544.25;5047077;28;7254;-40
2024/02/01 10:54:44;;;;;;;;;;;;;;;26.65;37.21;95547.50;5053207;28;7065;-40
2024/02/01 10:57:29;;;;;;;;;;;;;;;26.68;37.57;95543.03;5052672;28;8462;-42
2024/02/01 10:59:57;;;;;;;;;;;;;;;26.68;37.20;95546.53;5062212;28;8664;-42
2024/02/01 11:02:23;;;;;;;;;;;;;;;26.68;37.18;95543.03;5046504;28;7210;-37
2024/02/01 11:04:53;;;;;;;;;;;;;;;26.67;37.41;95547.78;5064307;28;7002;-37
2024/02/01 11:07:26;;;;;;;;;;;;;;;26.67;37.27;95552.53;5068707;28;7244;-37
2024/02/01 11:10:12;;;;;;;;;;;;;;;26.67;36.85;95550.53;5079297;28;7250;-37
2024/02/01 11:12:39;;;;;;;;;;;;;;;26.66;37.08;95556.56;5066034;28;7240;-37
2024/02/01 11:15:16;;;;;;;;;;;;;;;26.68;37.35;95565.09;5057306;28;7213;-37
2024/02/01 11:17:45;;;;;;;;;;;;;;;26.66;37.29;95559.31;5053750;28;7047;-37
2024/02/01 11:20:31;;;;;;;;;;;;;;;26.66;37.30;95557.31;5062335;28;6979;-37
2024/02/01 11:23:16;;;;;;;;;;;;;;;26.66;37.35;95551.81;5071539;28;7240;-37
2024/02/01 11:25:49;;;;;;;;;;;;;;;26.64;37.79;95551.50;5057562;28;7076;-37
2024/02/01 11:28:30;;;;;;;;;;;;;;;26.65;37.54;95550.28;5073855;28;9122;-37
2024/02/01 11:31:01;;;;;;;;;;;;;;;26.65;37.16;95546.75;5066640;28;7000;-37
2024/02/01 11:33:30;;;;;;;;;;;;;;;26.64;37.33;95550.78;5079053;28;7055;-37
2024/02/01 11:36:28;;;;;;;;;;;;;;;26.63;37.17;95546.50;5075579;28;7268;-37
2024/02/01 11:39:04;;;;;;;;;;;;;;;26.61;37.02;95537.94;5036888;28;7002;-37
2024/02/01 11:41:31;;;;;;;;;;;;;;;26.63;37.83;95543.72;5035799;28;7247;-37
2024/02/01 11:44:06;;;;;;;;;;;;;;;26.60;37.41;95537.19;5070694;28;7177;-37
2024/02/01 11:46:35;;;;;;;;;;;;;;;26.61;37.22;95540.69;5044659;28;9050;-37
2024/02/01 11:49:18;;;;;;;;;;;;;;;26.60;37.61;95534.41;5088403;28;9077;-37
2024/02/01 11:52:14;;;;;;;;;;;;;;;26.61;37.35;95532.44;5058238;28;7260;-37
2024/02/01 11:54:50;;;;;;;;;;;;;;;26.61;37.48;95526.91;5059338;28;9074;-37
2024/02/01 11:57:54;;;;;;;;;;;;;;;26.61;37.21;95530.44;5039739;28;7910;-37
2024/02/01 12:00:55;;;;;;;;;;;;;;;26.60;37.48;95531.66;5010967;28;7919;-37
2024/02/01 12:03:32;;;;;;;;;;;;;;;26.62;37.58;95523.66;4953339;28;9159;-37
2024/02/01 12:06:06;;;;;;;;;;;;;;;26.60;37.40;95525.41;4957135;28;7507;-37
2024/02/01 12:08:41;;;;;;;;;;;;;;;26.60;37.63;95525.41;4953202;28;9321;-37
2024/02/01 12:11:37;;;;;;;;;;;;;;;26.62;37.85;95537.44;4938271;29;7226;-56
2024/02/01 12:14:22;;;;;;;;;;;;;;;26.61;37.33;95524.16;4907954;29;8220;-55
2024/02/01 12:16:54;;;;;;;;;;;;;;;26.63;37.56;95516.91;4912969;29;7198;-55
2024/02/01 12:19:38;;;;;;;;;;;;;;;26.63;37.70;95507.84;4917108;29;8845;-55
2024/02/01 12:22:07;;;;;;;;;;;;;;;26.60;37.54;95511.63;4933918;29;7200;-56
2024/02/01 12:24:35;;;;;;;;;;;;;;;26.61;37.29;95510.34;4912962;29;6999;-55
2024/02/01 12:27:06;;;;;;;;;;;;;;;26.60;37.49;95515.09;4929764;29;6965;-55
2024/02/01 12:29:33;;;;;;;;;;;;;;;26.59;37.73;95501.81;4928891;29;7154;-55
2024/02/01 12:32:02;;;;;;;;;;;;;;;26.63;37.36;95502.34;4924326;29;7574;-54
2024/02/01 12:34:31;;;;;;;;;;;;;;;26.64;37.72;95501.09;4937968;29;7133;-53
2024/02/01 12:37:01;;;;;;;;;;;;;;;26.65;37.75;95494.31;4934555;28;7834;-55
2024/02/01 12:39:32;;;;;;;;;;;;;;;26.66;37.94;95501.38;4969393;28;7288;-54
2024/02/01 12:41:59;;;;;;;;;;;;;;;26.66;37.90;95495.84;4966192;28;7085;-55
2024/02/01 12:44:33;;;;;;;;;;;;;;;26.67;37.31;95487.06;4960598;28;9480;-54
2024/02/01 12:47:00;;;;;;;;;;;;;;;26.66;37.51;95487.56;4955290;28;7206;-55
2024/02/01 12:49:27;;;;;;;;;;;;;;;26.70;37.59;95493.59;4979753;28;9270;-50
2024/02/01 12:52:04;;;;;;;;;;;;;;;26.67;37.66;95495.34;5066137;28;8789;-54
2024/02/01 12:54:42;;;;;;;;;;;;;;;26.69;37.49;95489.31;5051911;28;9605;-54
2024/02/01 12:57:21;;;;;;;;;;;;;;;26.71;37.36;95492.34;5037184;28;7182;-54
2024/02/01 12:59:58;;;;;;;;;;;;;;;26.70;37.57;95483.34;5049316;28;9277;-54
2024/02/01 13:02:30;;;;;;;;;;;;;;;26.71;37.59;95482.06;5044804;28;8891;-55
2024/02/01 13:04:56;;;;;;;;;;;;;;;26.74;37.59;95485.88;5045836;28;7256;-55
2024/02/01 13:07:22;;;;;;;;;;;;;;;26.71;37.81;95492.34;5066375;28;7835;-54
2024/02/01 13:09:52;;;;;;;;;;;;;;;26.70;37.45;95477.06;5042608;28;7009;-55
2024/02/01 13:12:26;;;;;;;;;;;;;;;26.73;37.66;95484.38;5042268;28;6998;-54
2024/02/01 13:15:05;;;;;;;;;;;;;;;26.72;37.70;95480.06;5086954;28;7009;-54
2024/02/01 13:17:34;;;;;;;;;;;;;;;26.71;37.66;95486.81;5074898;28;9422;-55
2024/02/01 13:20:18;;;;;;;;;;;;;;;26.71;37.95;95484.06;5054812;28;7276;-55
2024/02/01 13:22:56;;;;;;;;;;;;;;;26.69;37.87;95475.53;5076773;28;6971;-38
2024/02/01 13:26:10;;;;;;;;;;;;;;;26.68;37.76;95482.31;5074999;28;7271;-39
2024/02/01 13:29:00;;;;;;;;;;;;;;;26.71;37.84;95489.59;4999072;28;7298;-37
2024/02/01 13:31:26;;;;;;;;;;;;;;;26.70;37.83;95499.13;5000667;28;7236;-38
2024/02/01 13:33:59;;;;;;;;;;;;;;;26.70;37.81;95496.38;5027785;28;8701;-38
2024/02/01 13:36:39;;;;;;;;;;;;;;;26.71;37.81;95501.38;5013947;28;7279;-38
2024/02/01 13:39:15;;;;;;;;;;;;;;;26.73;37.88;95506.47;4994969;28;7132;-37
2024/02/01 13:41:42;;;;;;;;;;;;;;;26.71;37.76;95503.38;5007691;28;7318;-40
2024/02/01 13:44:11;;;;;;;;;;;;;;;26.71;37.47;95497.88;4980984;28;9060;-39
2024/02/01 13:46:51;;;;;;;;;;;;;;;26.71;37.53;95503.38;5016284;28;7339;-38
2024/02/01 13:49:39;;;;;;;;;;;;;;;26.72;37.78;95502.91;5044276;28;7396;-38
2024/02/01 13:52:07;;;;;;;;;;;;;;;26.72;37.60;95499.38;5032445;28;9143;-39
2024/02/01 13:54:42;;;;;;;;;;;;;;;26.71;37.80;95506.16;5035013;28;6996;-38
2024/02/01 13:57:27;;;;;;;;;;;;;;;26.68;37.74;95504.38;5023769;28;7204;-38
2024/02/01 14:00:14;;;;;;;;;;;;;;;26.67;37.91;95498.09;5024084;28;7192;-38
2024/02/01 14:02:57;;;;;;;;;;;;;;;26.69;37.72;95500.38;5024599;28;7247;-39
2024/02/01 14:05:43;;;;;;;;;;;;;;;26.73;37.71;95500.94;5062449;28;7338;-39
2024/02/01 14:08:14;;;;;;;;;;;;;;;26.74;37.35;95513.47;5065575;28;7252;-39
2024/02/01 14:11:01;;;;;;;;;;;;;;;26.73;37.86;95507.19;5054292;28;7031;-39
2024/02/01 14:13:52;;;;;;;;;;;;;;;26.74;37.94;95503.22;5051287;28;7255;-38
2024/02/01 14:16:32;;;;;;;;;;;;;;;26.74;38.10;95507.97;5057190;28;7491;-39
2024/02/01 14:19:04;;;;;;;;;;;;;;;26.74;37.66;95505.97;5037936;28;7313;-39
2024/02/01 14:21:36;;;;;;;;;;;;;;;26.74;38.00;95511.50;5040403;28;7268;-39
2024/02/01 14:24:19;;;;;;;;;;;;;;;26.73;38.04;95518.25;5055742;28;8268;-38
2024/02/01 14:26:51;;;;;;;;;;;;;;;26.71;38.51;95508.91;5051599;28;9061;-38
2024/02/01 14:29:38;;;;;;;;;;;;;;;26.70;38.11;95518.44;5053194;28;8829;-39
2024/02/01 14:32:07;;;;;;;;;;;;;;;26.70;37.95;95521.22;5044391;28;9438;-37
2024/02/01 14:34:36;;;;;;;;;;;;;;;26.66;37.93;95517.91;5043118;28;9101;-37
2024/02/01 14:37:04;;;;;;;;;;;;;;;26.67;37.94;95514.66;5021709;28;8999;-37